Time;durP1;ratioP1;P1;durP2;ratioP2;P2;SDS_P1;SDS_P2;PMS_P1;PMS_P2;Temp;Humidity;BMP_temperature;BMP_pressure;BME280_temperature;BME280_humidity;BME280_pressure;Samples;Min_cycle;Max_cycle;Signal;HPM_P1;HPM_P2
2021/07/26 00:02:01;;;;;;;6.78;3.78;;;;;;;-145.70;100.00;63560.63;5021403;28;20029;-58
2021/07/26 00:04:26;;;;;;;6.47;3.20;;;;;;;-145.70;100.00;63560.63;5021027;28;20409;-58
2021/07/26 00:06:51;;;;;;;7.68;3.47;;;;;;;-145.70;100.00;63560.63;5021109;28;20026;-57
2021/07/26 00:09:17;;;;;;;5.85;3.17;;;;;;;-145.70;100.00;63560.63;5022110;28;20027;-58
2021/07/26 00:11:42;;;;;;;11.00;3.92;;;;;;;-145.70;100.00;63560.63;5021733;28;20065;-58
2021/07/26 00:14:08;;;;;;;10.07;4.18;;;;;;;-145.70;100.00;63560.63;5022704;28;20473;-58
2021/07/26 00:16:33;;;;;;;9.35;4.20;;;;;;;-145.70;100.00;63560.63;5013543;28;20107;-58
2021/07/26 00:18:59;;;;;;;7.32;4.22;;;;;;;-145.70;100.00;63560.63;5018945;28;20026;-59
2021/07/26 00:21:24;;;;;;;7.20;4.72;;;;;;;-145.70;100.00;63560.63;5020761;28;20037;-59
2021/07/26 00:23:49;;;;;;;7.35;4.13;;;;;;;-145.70;100.00;63560.63;5022125;28;20018;-58
2021/07/26 00:26:16;;;;;;;8.00;4.30;;;;;;;-145.70;100.00;63560.63;4997949;28;20030;-58
2021/07/26 00:28:42;;;;;;;7.68;4.20;;;;;;;-145.70;100.00;63560.63;5017320;28;20029;-59
2021/07/26 00:31:08;;;;;;;6.80;4.00;;;;;;;-145.70;100.00;63560.63;5018388;28;20033;-59
2021/07/26 00:34:09;;;;;;;5.65;3.10;;;;;;;-145.70;100.00;63560.63;5017060;28;20637;-59
2021/07/26 00:36:40;;;;;;;6.63;3.20;;;;;;;-145.70;100.00;63560.63;5018845;28;20128;-58
2021/07/26 00:39:07;;;;;;;6.18;3.50;;;;;;;-145.70;100.00;63560.63;5014822;28;20036;-58
2021/07/26 00:41:33;;;;;;;6.90;3.00;;;;;;;-145.70;100.00;63560.63;5021175;28;20116;-57
2021/07/26 00:43:59;;;;;;;6.72;3.33;;;;;;;-145.70;100.00;63560.63;5017090;28;20048;-58
2021/07/26 00:46:24;;;;;;;7.05;3.25;;;;;;;-145.70;100.00;63560.63;5020402;28;20116;-59
2021/07/26 00:48:50;;;;;;;6.13;2.95;;;;;;;-145.70;100.00;63560.63;5012069;28;20014;-57
2021/07/26 00:51:15;;;;;;;6.68;3.53;;;;;;;-145.70;100.00;63560.63;5020216;28;20099;-58
2021/07/26 00:53:41;;;;;;;8.25;3.20;;;;;;;-145.70;100.00;63560.63;5020830;28;20037;-58
2021/07/26 00:56:07;;;;;;;7.65;3.35;;;;;;;-145.70;100.00;63560.63;5022501;28;20061;-59
2021/07/26 00:58:33;;;;;;;6.25;3.47;;;;;;;-145.70;100.00;63560.63;5016232;28;20025;-58
2021/07/26 01:01:00;;;;;;;6.80;3.63;;;;;;;-145.70;100.00;63560.63;5019937;28;20413;-59
2021/07/26 01:03:25;;;;;;;7.18;3.17;;;;;;;-145.70;100.00;63560.63;5021396;28;20026;-58
2021/07/26 01:05:51;;;;;;;5.90;2.95;;;;;;;-145.70;100.00;63560.63;5019395;28;20029;-57
2021/07/26 01:08:16;;;;;;;7.97;3.92;;;;;;;-145.70;100.00;63560.63;5022198;28;20014;-58
2021/07/26 01:10:42;;;;;;;6.63;3.80;;;;;;;-145.70;100.00;63560.63;5018767;28;20813;-56
2021/07/26 01:13:07;;;;;;;7.80;3.75;;;;;;;-145.70;100.00;63560.63;5003703;28;20456;-58
2021/07/26 01:15:33;;;;;;;13.30;4.30;;;;;;;-145.70;100.00;63560.63;5011120;28;20033;-58
2021/07/26 01:18:21;;;;;;;8.73;2.83;;;;;;;-145.70;100.00;63560.63;5019913;28;20123;-59
2021/07/26 01:20:55;;;;;;;6.60;3.28;;;;;;;-145.70;100.00;63560.63;5034140;28;20030;-59
2021/07/26 01:23:22;;;;;;;5.85;2.80;;;;;;;-145.70;100.00;63560.63;5016144;28;20060;-59
2021/07/26 01:25:47;;;;;;;6.47;2.67;;;;;;;-145.70;100.00;63560.63;5053622;28;20032;-57
2021/07/26 01:28:15;;;;;;;5.50;2.75;;;;;;;-145.70;100.00;63560.63;5018451;28;20034;-59
2021/07/26 01:30:43;;;;;;;7.68;3.00;;;;;;;-145.70;100.00;63560.63;5015309;28;20034;-58
2021/07/26 01:33:10;;;;;;;6.50;2.73;;;;;;;-145.70;100.00;63560.63;5015413;28;20028;-58
2021/07/26 01:35:36;;;;;;;6.35;2.92;;;;;;;-145.70;100.00;63560.63;5018762;28;20295;-59
2021/07/26 01:38:02;;;;;;;5.72;2.47;;;;;;;-145.70;100.00;63560.63;5012248;28;20056;-58
2021/07/26 01:40:28;;;;;;;5.82;2.72;;;;;;;-145.70;100.00;63560.63;5019836;28;20436;-58
2021/07/26 01:43:00;;;;;;;6.35;2.83;;;;;;;-145.70;100.00;63560.63;5017697;28;20021;-58
2021/07/26 01:45:26;;;;;;;5.97;2.33;;;;;;;-145.70;100.00;63560.63;5019175;28;20531;-59
2021/07/26 01:47:54;;;;;;;5.53;2.83;;;;;;;-145.70;100.00;63560.63;4997584;28;20021;-58
2021/07/26 01:50:20;;;;;;;4.97;2.75;;;;;;;-145.70;100.00;63560.63;5017829;28;20030;-58
2021/07/26 01:52:46;;;;;;;4.95;2.95;;;;;;;-145.70;100.00;63560.63;5019021;28;20029;-58
2021/07/26 01:55:12;;;;;;;5.10;2.55;;;;;;;-145.70;100.00;63560.63;5013531;28;20033;-58
2021/07/26 01:57:37;;;;;;;5.78;2.88;;;;;;;-145.70;100.00;63560.63;5017430;28;20029;-58
2021/07/26 02:00:04;;;;;;;6.13;2.60;;;;;;;-145.70;100.00;63560.63;5023055;28;20717;-58
2021/07/26 02:02:31;;;;;;;5.82;2.78;;;;;;;-145.70;100.00;63560.63;5016054;28;20032;-59
2021/07/26 02:04:58;;;;;;;5.10;2.60;;;;;;;-145.70;100.00;63560.63;5019798;28;20038;-58
2021/07/26 02:07:23;;;;;;;5.10;2.90;;;;;;;-145.70;100.00;63560.63;5024759;28;20032;-57
2021/07/26 02:09:49;;;;;;;5.15;2.67;;;;;;;-145.70;100.00;63560.63;5022279;28;20033;-58
2021/07/26 02:12:14;;;;;;;5.43;2.78;;;;;;;-145.70;100.00;63560.63;5023650;28;20025;-59
2021/07/26 02:14:39;;;;;;;4.93;2.58;;;;;;;-145.70;100.00;63560.63;5022607;28;20084;-59
2021/07/26 02:17:06;;;;;;;5.70;2.63;;;;;;;-145.70;100.00;63560.63;5021968;28;20030;-58
2021/07/26 02:19:32;;;;;;;5.78;2.67;;;;;;;-145.70;100.00;63560.63;5024846;28;20033;-58
2021/07/26 02:21:57;;;;;;;5.63;2.40;;;;;;;-145.70;100.00;63560.63;5016965;28;20031;-58
2021/07/26 02:24:22;;;;;;;6.97;2.80;;;;;;;-145.70;100.00;63560.63;5022915;28;20398;-58
2021/07/26 02:26:48;;;;;;;5.00;2.67;;;;;;;-145.70;100.00;63560.63;5022383;28;20040;-57
2021/07/26 02:29:13;;;;;;;5.15;2.35;;;;;;;-145.70;100.00;63560.63;5019142;28;20031;-57
2021/07/26 02:31:38;;;;;;;5.78;2.53;;;;;;;-145.70;100.00;63560.63;5024367;28;20041;-57
2021/07/26 02:34:04;;;;;;;6.22;2.55;;;;;;;-145.70;100.00;63560.63;5018974;28;20021;-58
2021/07/26 02:36:29;;;;;;;5.18;2.20;;;;;;;-145.70;100.00;63560.63;5022984;28;20032;-57
2021/07/26 02:38:55;;;;;;;4.97;2.30;;;;;;;-145.70;100.00;63560.63;5022773;28;20076;-57
2021/07/26 02:41:20;;;;;;;3.95;1.83;;;;;;;-145.70;100.00;63560.63;5021075;28;20032;-57
2021/07/26 02:43:46;;;;;;;5.80;2.10;;;;;;;-145.70;100.00;63560.63;5022855;28;20586;-57
2021/07/26 02:46:11;;;;;;;4.32;2.17;;;;;;;-145.70;100.00;63560.63;5022792;28;20036;-57
2021/07/26 02:48:38;;;;;;;4.47;2.20;;;;;;;-145.70;100.00;63560.63;5024204;28;20249;-57
2021/07/26 02:51:04;;;;;;;5.15;2.20;;;;;;;-145.70;100.00;63560.63;5021280;28;20028;-57
2021/07/26 02:53:29;;;;;;;4.82;2.00;;;;;;;-145.70;100.00;63560.63;5024517;28;20033;-57
2021/07/26 02:55:54;;;;;;;6.40;2.20;;;;;;;-145.70;100.00;63560.63;5020439;28;20021;-57
2021/07/26 02:58:22;;;;;;;5.13;2.25;;;;;;;-145.70;100.00;63560.63;5021844;28;20033;-57
2021/07/26 03:00:48;;;;;;;5.80;2.08;;;;;;;-145.70;100.00;63560.63;5021487;28;20547;-57
2021/07/26 03:03:14;;;;;;;5.05;2.28;;;;;;;-145.70;100.00;63560.63;5005429;28;20112;-55
2021/07/26 03:05:40;;;;;;;4.55;2.30;;;;;;;-145.70;100.00;63560.63;5019211;28;20041;-56
2021/07/26 03:08:05;;;;;;;4.63;2.30;;;;;;;-145.70;100.00;63560.63;5018473;28;20056;-57
2021/07/26 03:10:31;;;;;;;5.28;2.40;;;;;;;-145.70;100.00;63560.63;5018236;28;20136;-55
2021/07/26 03:12:56;;;;;;;5.45;2.20;;;;;;;-145.70;100.00;63560.63;5021834;28;20029;-58
2021/07/26 03:15:23;;;;;;;4.60;2.20;;;;;;;-145.70;100.00;63560.63;5023125;28;20025;-56
2021/07/26 03:17:49;;;;;;;4.95;2.35;;;;;;;-145.70;100.00;63560.63;5023541;28;20030;-57
2021/07/26 03:20:15;;;;;;;5.28;2.63;;;;;;;-145.70;100.00;63560.63;5020823;28;20025;-57
2021/07/26 03:22:47;;;;;;;4.93;2.40;;;;;;;-145.70;100.00;63560.63;5021803;28;20628;-56
2021/07/26 03:25:13;;;;;;;4.70;2.10;;;;;;;-145.70;100.00;63560.63;5021179;28;20053;-56
2021/07/26 03:27:39;;;;;;;5.22;2.42;;;;;;;-145.70;100.00;63560.63;5020803;28;20507;-56
2021/07/26 03:30:05;;;;;;;5.68;2.35;;;;;;;-145.70;100.00;63560.63;5017872;28;20045;-57
2021/07/26 03:32:30;;;;;;;6.43;2.63;;;;;;;-145.70;100.00;63560.63;5018818;28;20028;-58
2021/07/26 03:34:55;;;;;;;5.97;2.47;;;;;;;-145.70;100.00;63560.63;5022504;28;20034;-55
2021/07/26 03:37:21;;;;;;;6.97;2.60;;;;;;;-145.70;100.00;63560.63;5018824;28;20112;-56
2021/07/26 03:39:46;;;;;;;6.60;2.53;;;;;;;-145.70;100.00;63560.63;5020215;28;20025;-56
2021/07/26 03:42:12;;;;;;;5.40;2.40;;;;;;;-145.70;100.00;63560.63;5021795;28;20025;-54
2021/07/26 03:44:37;;;;;;;5.70;2.60;;;;;;;-145.70;100.00;63560.63;5021142;28;20124;-54
2021/07/26 03:47:03;;;;;;;4.57;2.13;;;;;;;-145.70;100.00;63560.63;5017426;28;20042;-57
2021/07/26 03:49:28;;;;;;;5.88;2.40;;;;;;;-145.70;100.00;63560.63;5021980;28;20037;-57
2021/07/26 03:51:53;;;;;;;5.15;2.05;;;;;;;-145.70;100.00;63560.63;5017718;28;20021;-57
2021/07/26 03:54:19;;;;;;;7.53;2.50;;;;;;;-145.70;100.00;63560.63;5015870;28;20431;-56
2021/07/26 03:56:44;;;;;;;5.30;2.60;;;;;;;-145.70;100.00;63560.63;5019065;28;20041;-58
2021/07/26 03:59:09;;;;;;;5.47;2.67;;;;;;;-145.70;100.00;63560.63;5015957;28;20032;-56
2021/07/26 04:01:35;;;;;;;7.30;2.58;;;;;;;-145.70;100.00;63560.63;5022307;28;20396;-58
2021/07/26 04:04:00;;;;;;;5.30;2.40;;;;;;;-145.70;100.00;63560.63;5021184;28;20029;-57
2021/07/26 04:06:26;;;;;;;5.95;2.25;;;;;;;-145.70;100.00;63560.63;5016320;28;20048;-56
2021/07/26 04:08:53;;;;;;;4.82;2.42;;;;;;;-145.70;100.00;63560.63;5019653;28;20040;-58
2021/07/26 04:13:44;;;;;;;5.38;2.38;;;;;;;-145.70;100.00;63560.63;5022864;28;20041;-57
2021/07/26 04:16:09;;;;;;;4.70;2.30;;;;;;;-145.70;100.00;63560.63;5016048;28;20017;-57
2021/07/26 04:18:35;;;;;;;5.40;2.30;;;;;;;-145.70;100.00;63560.63;5022094;28;20038;-56
2021/07/26 04:21:08;;;;;;;5.47;2.75;;;;;;;-145.70;100.00;63560.63;5017517;28;21495;-57
2021/07/26 04:23:34;;;;;;;4.60;2.28;;;;;;;-145.70;100.00;63560.63;5020921;28;20545;-58
2021/07/26 04:25:59;;;;;;;4.85;2.15;;;;;;;-145.70;100.00;63560.63;5019947;28;20025;-57
2021/07/26 04:28:24;;;;;;;4.60;2.00;;;;;;;-145.70;100.00;63560.63;5018217;28;20034;-57
2021/07/26 04:30:50;;;;;;;5.60;2.42;;;;;;;-145.70;100.00;63560.63;5021994;28;20637;-58
2021/07/26 04:33:16;;;;;;;4.82;2.30;;;;;;;-145.70;100.00;63560.63;5015831;28;20104;-58
2021/07/26 04:35:41;;;;;;;6.50;2.50;;;;;;;-145.70;100.00;63560.63;5022007;28;20025;-57
2021/07/26 04:38:06;;;;;;;5.35;2.45;;;;;;;-145.70;100.00;63560.63;5016634;28;20700;-57
2021/07/26 04:40:32;;;;;;;6.05;2.30;;;;;;;-145.70;100.00;63560.63;5019763;28;20025;-57
2021/07/26 04:42:57;;;;;;;6.05;2.55;;;;;;;-145.70;100.00;63560.63;5020670;28;20036;-58
2021/07/26 04:45:23;;;;;;;5.53;2.10;;;;;;;-145.70;100.00;63560.63;5017193;28;20041;-57
2021/07/26 04:47:48;;;;;;;5.47;2.38;;;;;;;-145.70;100.00;63560.63;5022448;28;20053;-58
2021/07/26 04:50:13;;;;;;;4.65;2.15;;;;;;;-145.70;100.00;63560.63;5019389;28;20141;-56
2021/07/26 04:52:39;;;;;;;8.10;2.22;;;;;;;-145.70;100.00;63560.63;5023204;28;20029;-57
2021/07/26 04:55:05;;;;;;;5.10;2.45;;;;;;;-145.70;100.00;63560.63;5018916;28;20025;-58
2021/07/26 04:57:30;;;;;;;5.32;2.40;;;;;;;-145.70;100.00;63560.63;5018189;28;20038;-58
2021/07/26 04:59:56;;;;;;;7.43;2.60;;;;;;;-145.70;100.00;63560.63;5021650;28;20030;-58
2021/07/26 05:02:21;;;;;;;6.30;2.20;;;;;;;-145.70;100.00;63560.63;5018447;28;20030;-57
2021/07/26 05:04:47;;;;;;;4.88;2.42;;;;;;;-145.70;100.00;63560.63;4987236;28;20109;-58
2021/07/26 05:07:12;;;;;;;5.20;2.33;;;;;;;-145.70;100.00;63560.63;5016669;28;20037;-58
2021/07/26 05:09:38;;;;;;;5.47;2.28;;;;;;;-145.70;100.00;63560.63;5021624;28;20036;-57
2021/07/26 05:12:07;;;;;;;7.65;2.53;;;;;;;-145.70;100.00;63560.63;5014482;28;20053;-58
2021/07/26 05:14:32;;;;;;;7.30;2.58;;;;;;;-145.70;100.00;63560.63;5018530;28;20031;-57
2021/07/26 05:16:58;;;;;;;5.00;2.53;;;;;;;-145.70;100.00;63560.63;5020419;28;20040;-57
2021/07/26 05:19:23;;;;;;;5.32;2.70;;;;;;;-145.70;100.00;63560.63;5021396;28;20408;-57
2021/07/26 05:21:49;;;;;;;5.65;2.47;;;;;;;-145.70;100.00;63560.63;5020683;28;20105;-57
2021/07/26 05:24:14;;;;;;;6.03;2.80;;;;;;;-145.70;100.00;63560.63;5022604;28;20145;-57
2021/07/26 05:26:39;;;;;;;5.15;2.53;;;;;;;-145.70;100.00;63560.63;5020275;28;20030;-57
2021/07/26 05:29:05;;;;;;;5.50;2.72;;;;;;;-145.70;100.00;63560.63;5018972;28;20029;-55
2021/07/26 05:31:30;;;;;;;4.97;2.40;;;;;;;-145.70;100.00;63560.63;5021375;28;20705;-57
2021/07/26 05:33:56;;;;;;;6.60;2.42;;;;;;;-145.70;100.00;63560.63;5023790;28;20021;-57
2021/07/26 05:36:24;;;;;;;5.68;2.60;;;;;;;-145.70;100.00;63560.63;5022632;28;20109;-57
2021/07/26 05:38:50;;;;;;;5.70;2.92;;;;;;;-145.70;100.00;63560.63;5025091;28;20112;-57
2021/07/26 05:41:16;;;;;;;7.25;3.80;;;;;;;-145.70;100.00;63560.63;5018639;28;20079;-57
2021/07/26 05:43:41;;;;;;;6.55;3.35;;;;;;;-145.70;100.00;63560.63;5025113;28;20028;-57
2021/07/26 05:46:07;;;;;;;6.95;2.70;;;;;;;-145.70;100.00;63560.63;5026420;28;20370;-56
2021/07/26 05:48:32;;;;;;;5.47;2.35;;;;;;;-145.70;100.00;63560.63;5023891;28;20035;-58
2021/07/26 05:50:57;;;;;;;5.38;2.25;;;;;;;-145.70;100.00;63560.63;5025899;28;20041;-57
2021/07/26 05:53:23;;;;;;;5.10;2.60;;;;;;;-145.70;100.00;63560.63;5024686;28;20673;-58
2021/07/26 05:55:48;;;;;;;5.60;2.40;;;;;;;-145.70;100.00;63560.63;5023553;28;20065;-57
2021/07/26 05:58:13;;;;;;;6.05;2.47;;;;;;;-145.70;100.00;63560.63;5022287;28;20104;-57
2021/07/26 06:00:44;;;;;;;6.60;2.85;;;;;;;-145.70;100.00;63560.63;5024980;28;20029;-57
2021/07/26 06:03:10;;;;;;;5.28;2.40;;;;;;;-145.70;100.00;63560.63;5017730;28;20075;-58
2021/07/26 06:05:36;;;;;;;5.65;2.65;;;;;;;-145.70;100.00;63560.63;5023767;28;20179;-57
2021/07/26 06:08:01;;;;;;;6.70;2.42;;;;;;;-145.70;100.00;63560.63;5018063;28;20036;-57
2021/07/26 06:10:27;;;;;;;6.55;2.55;;;;;;;-145.70;100.00;63560.63;5022764;28;20025;-57
2021/07/26 06:12:53;;;;;;;4.53;2.20;;;;;;;-145.70;100.00;63560.63;5023488;28;20107;-55
2021/07/26 06:15:19;;;;;;;5.85;2.60;;;;;;;-145.70;100.00;63560.63;5020531;28;20057;-56
2021/07/26 06:17:44;;;;;;;5.80;2.67;;;;;;;-145.70;100.00;63560.63;5022628;28;20084;-56
2021/07/26 06:20:11;;;;;;;4.75;2.20;;;;;;;-145.70;100.00;63560.63;5025689;28;20026;-57
2021/07/26 06:22:37;;;;;;;5.28;2.28;;;;;;;-145.70;100.00;63560.63;5024720;28;20039;-58
2021/07/26 06:25:04;;;;;;;5.38;2.45;;;;;;;-145.70;100.00;63560.63;5021469;28;20030;-57
2021/07/26 06:27:29;;;;;;;6.72;2.70;;;;;;;-145.70;100.00;63560.63;5023760;28;20029;-57
2021/07/26 06:29:55;;;;;;;6.25;2.20;;;;;;;-145.70;100.00;63560.63;5023720;28;20817;-55
2021/07/26 06:32:20;;;;;;;4.35;2.13;;;;;;;-145.70;100.00;63560.63;5017749;28;20026;-57
2021/07/26 06:34:46;;;;;;;6.28;2.65;;;;;;;-145.70;100.00;63560.63;5022357;28;20448;-57
2021/07/26 06:37:11;;;;;;;5.60;2.85;;;;;;;-145.70;100.00;63560.63;5017509;28;20451;-58
2021/07/26 06:39:36;;;;;;;4.93;2.50;;;;;;;-145.70;100.00;63560.63;5019639;28;20084;-55
2021/07/26 06:42:02;;;;;;;4.90;2.22;;;;;;;-145.70;100.00;63560.63;5018648;28;20024;-58
2021/07/26 06:44:28;;;;;;;7.32;2.30;;;;;;;-145.70;100.00;63560.63;5022347;28;20449;-56
2021/07/26 06:46:53;;;;;;;5.20;2.22;;;;;;;-145.70;100.00;63560.63;5023154;28;20064;-56
2021/07/26 06:49:18;;;;;;;5.35;2.15;;;;;;;-145.70;100.00;63560.63;5019839;28;20116;-58
2021/07/26 06:51:44;;;;;;;5.88;2.33;;;;;;;-145.70;100.00;63560.63;5023993;28;20025;-57
2021/07/26 06:54:09;;;;;;;5.07;2.40;;;;;;;-145.70;100.00;63560.63;5022698;28;20451;-57
2021/07/26 06:56:34;;;;;;;4.57;2.25;;;;;;;-145.70;100.00;63560.63;5023191;28;20021;-56
2021/07/26 06:59:00;;;;;;;6.70;2.60;;;;;;;-145.70;100.00;63560.63;5017308;28;20029;-57
2021/07/26 07:01:25;;;;;;;5.15;2.47;;;;;;;-145.70;100.00;63560.63;5021298;28;20056;-58
2021/07/26 07:03:51;;;;;;;4.63;2.28;;;;;;;-145.70;100.00;63560.63;5025923;28;20037;-56
2021/07/26 07:06:17;;;;;;;7.82;3.00;;;;;;;-145.70;100.00;63560.63;5023856;28;20037;-57
2021/07/26 07:08:44;;;;;;;8.02;2.70;;;;;;;-145.70;100.00;63560.63;5010003;28;20113;-59
2021/07/26 07:11:17;;;;;;;9.20;2.90;;;;;;;-145.70;100.00;63560.63;5018421;28;20017;-58
2021/07/26 07:13:47;;;;;;;5.10;2.10;;;;;;;-145.70;100.00;63560.63;5022543;28;20547;-56
2021/07/26 07:16:18;;;;;;;4.75;2.20;;;;;;;-145.70;100.00;63560.63;5020192;28;20028;-57
2021/07/26 07:18:45;;;;;;;5.00;2.20;;;;;;;-145.70;100.00;63560.63;5025015;28;20057;-57
2021/07/26 07:21:25;;;;;;;4.45;2.13;;;;;;;-145.70;100.00;63560.63;5014951;28;20120;-56
2021/07/26 07:23:50;;;;;;;;;;;;;;;-145.70;100.00;63560.63;5016794;28;20022;-57
2021/07/26 07:26:17;;;;;;;5.40;2.42;;;;;;;-145.70;100.00;63560.63;5009153;28;19923;-57
2021/07/26 07:28:45;;;;;;;5.10;2.17;;;;;;;-145.70;100.00;63560.63;5023438;28;20028;-57
2021/07/26 07:31:12;;;;;;;4.63;2.25;;;;;;;-145.70;100.00;63560.63;5022722;28;20100;-58
2021/07/26 07:33:38;;;;;;;5.47;2.38;;;;;;;-145.70;100.00;63560.63;5020916;28;20380;-57
2021/07/26 07:36:04;;;;;;;5.47;2.20;;;;;;;-145.70;100.00;63560.63;5021031;28;20025;-58
2021/07/26 07:38:29;;;;;;;5.38;2.55;;;;;;;-145.70;100.00;63560.63;5022923;28;20115;-57
2021/07/26 07:40:55;;;;;;;5.32;2.50;;;;;;;-145.70;100.00;63560.63;5019601;28;20448;-56
2021/07/26 07:43:21;;;;;;;6.78;2.60;;;;;;;-145.70;100.00;63560.63;5021445;28;20025;-57
2021/07/26 07:45:46;;;;;;;5.55;2.40;;;;;;;-145.70;100.00;63560.63;5023676;28;20041;-58
2021/07/26 07:48:12;;;;;;;5.38;2.20;;;;;;;-145.70;100.00;63560.63;5017402;28;20723;-57
2021/07/26 07:50:37;;;;;;;8.10;2.70;;;;;;;-145.70;100.00;63560.63;5021170;28;20581;-58
2021/07/26 07:53:03;;;;;;;4.78;2.33;;;;;;;-145.70;100.00;63560.63;5021093;28;20030;-57
2021/07/26 07:55:29;;;;;;;5.43;2.58;;;;;;;-145.70;100.00;63560.63;5020384;28;20287;-57
2021/07/26 07:57:54;;;;;;;4.70;2.20;;;;;;;-145.70;100.00;63560.63;5019352;28;20108;-58
2021/07/26 08:00:21;;;;;;;6.03;3.55;;;;;;;-145.70;100.00;63560.63;5021310;28;20045;-57
2021/07/26 08:02:47;;;;;;;5.95;2.25;;;;;;;-145.70;100.00;63560.63;5019970;28;20025;-57
2021/07/26 08:05:12;;;;;;;6.85;3.40;;;;;;;-145.70;100.00;63560.63;5017413;28;20598;-56
2021/07/26 08:07:38;;;;;;;6.13;2.58;;;;;;;-145.70;100.00;63560.63;5018641;28;20482;-57
2021/07/26 08:10:04;;;;;;;5.15;2.30;;;;;;;-145.70;100.00;63560.63;5024943;28;20025;-57
2021/07/26 08:12:32;;;;;;;5.30;2.20;;;;;;;-145.70;100.00;63560.63;5022659;28;20076;-58
2021/07/26 08:14:58;;;;;;;4.88;2.20;;;;;;;-145.70;100.00;63560.63;5020747;28;20032;-58
2021/07/26 08:17:23;;;;;;;5.43;2.40;;;;;;;-145.70;100.00;63560.63;5021993;28;20091;-58
2021/07/26 08:19:48;;;;;;;4.65;2.17;;;;;;;-145.70;100.00;63560.63;5021571;28;20132;-58
2021/07/26 08:22:14;;;;;;;4.38;2.03;;;;;;;-145.70;100.00;63560.63;5024128;28;20030;-58
2021/07/26 08:24:40;;;;;;;5.63;2.30;;;;;;;-145.70;100.00;63560.63;5021564;28;20013;-58
2021/07/26 08:27:05;;;;;;;5.18;2.22;;;;;;;-145.70;100.00;63560.63;5021424;28;20572;-58
2021/07/26 08:29:31;;;;;;;4.82;2.38;;;;;;;-145.70;100.00;63560.63;5021442;28;20037;-58
2021/07/26 08:31:56;;;;;;;4.38;2.10;;;;;;;-145.70;100.00;63560.63;5018042;28;20064;-57
2021/07/26 08:34:22;;;;;;;6.22;2.42;;;;;;;-145.70;100.00;63560.63;5021177;28;20187;-58
2021/07/26 08:36:47;;;;;;;5.82;2.70;;;;;;;-145.70;100.00;63560.63;5020957;28;20036;-58
2021/07/26 08:39:12;;;;;;;5.45;2.30;;;;;;;-145.70;100.00;63560.63;5018408;28;20365;-57
2021/07/26 08:41:38;;;;;;;5.20;2.10;;;;;;;-145.70;100.00;63560.63;5016606;28;20116;-58
2021/07/26 08:44:03;;;;;;;5.18;2.20;;;;;;;-145.70;100.00;63560.63;5020584;28;20345;-58
2021/07/26 08:46:30;;;;;;;6.25;2.20;;;;;;;-145.70;100.00;63560.63;5016850;28;20124;-58
2021/07/26 08:48:56;;;;;;;4.20;2.20;;;;;;;-145.70;100.00;63560.63;5019910;28;20021;-57
2021/07/26 08:51:23;;;;;;;4.65;2.08;;;;;;;-145.70;100.00;63560.63;5017602;28;20091;-58
2021/07/26 08:53:49;;;;;;;5.93;2.30;;;;;;;-145.70;100.00;63560.63;5017007;28;20037;-57
2021/07/26 08:56:18;;;;;;;5.07;2.20;;;;;;;-145.70;100.00;63560.63;5021028;28;20037;-57
2021/07/26 08:58:44;;;;;;;4.25;2.10;;;;;;;-145.70;100.00;63560.63;5020535;28;20022;-57
2021/07/26 09:01:14;;;;;;;6.13;2.08;;;;;;;-145.70;100.00;63560.63;5016244;28;20032;-57
2021/07/26 09:03:39;;;;;;;5.60;2.50;;;;;;;-145.70;100.00;63560.63;5018055;28;20125;-57
2021/07/26 09:06:05;;;;;;;4.78;2.10;;;;;;;-145.70;100.00;63560.63;5026429;28;20635;-58
2021/07/26 09:08:34;;;;;;;5.47;2.20;;;;;;;-145.70;100.00;63560.63;5019880;28;20025;-57
2021/07/26 09:11:01;;;;;;;;;;;;;;;-145.70;100.00;63560.63;5019360;28;20034;-57
2021/07/26 09:13:34;;;;;;;5.00;2.20;;;;;;;-145.70;100.00;63560.63;5018466;28;19917;-57
2021/07/26 09:16:20;;;;;;;6.72;2.28;;;;;;;-145.70;100.00;63560.63;5019077;28;20021;-58
2021/07/26 09:18:59;;;;;;;4.93;2.13;;;;;;;-145.70;100.00;63560.63;5017744;28;20095;-57
2021/07/26 09:21:55;;;;;;;4.90;2.22;;;;;;;-145.70;100.00;63560.63;5019855;28;20029;-58
2021/07/26 09:24:25;;;;;;;4.47;1.90;;;;;;;-145.70;100.00;63560.63;5019576;28;20034;-58
2021/07/26 09:26:52;;;;;;;4.00;2.00;;;;;;;-145.70;100.00;63560.63;5019926;28;20025;-57
2021/07/26 09:29:35;;;;;;;4.75;2.40;;;;;;;-145.70;100.00;63560.63;5020908;28;20033;-58
2021/07/26 09:32:07;;;;;;;5.10;2.42;;;;;;;-145.70;100.00;63560.63;5018740;28;20026;-58
2021/07/26 09:34:37;;;;;;;5.13;2.10;;;;;;;-145.70;100.00;63560.63;5018588;28;20068;-58
2021/07/26 09:37:15;;;;;;;5.43;2.10;;;;;;;-145.70;100.00;63560.63;5021870;28;20516;-57
2021/07/26 09:39:41;;;;;;;4.75;2.20;;;;;;;-145.70;100.00;63560.63;5018941;28;20742;-57
2021/07/26 09:42:24;;;;;;;4.70;2.22;;;;;;;-145.70;100.00;63560.63;5018414;28;20025;-56
2021/07/26 09:44:49;;;;;;;5.03;2.45;;;;;;;-145.70;100.00;63560.63;5021444;28;20061;-57
2021/07/26 09:47:19;;;;;;;6.60;2.28;;;;;;;-145.70;100.00;63560.63;5019007;28;20520;-57
2021/07/26 09:49:45;;;;;;;4.20;2.00;;;;;;;-145.70;100.00;63560.63;5019141;28;20084;-58
2021/07/26 09:52:10;;;;;;;5.15;2.20;;;;;;;-145.70;100.00;63560.63;5016905;28;20026;-57
2021/07/26 09:54:48;;;;;;;5.55;2.17;;;;;;;-145.70;100.00;63560.63;5019288;28;20443;-57
2021/07/26 09:57:21;;;;;;;4.45;2.00;;;;;;;-145.70;100.00;63560.63;5021910;28;20033;-57
2021/07/26 09:59:48;;;;;;;5.38;2.15;;;;;;;-145.70;100.00;63560.63;5014261;28;20037;-55
2021/07/26 10:02:15;;;;;;;4.70;2.03;;;;;;;-145.70;100.00;63560.63;5017132;28;20053;-56
2021/07/26 10:04:45;;;;;;;5.75;1.90;;;;;;;-145.70;100.00;63560.63;5019066;28;20167;-56
2021/07/26 10:07:18;;;;;;;4.95;2.38;;;;;;;-145.70;100.00;63560.63;5020143;28;20109;-56
2021/07/26 10:09:45;;;;;;;5.78;2.20;;;;;;;-145.70;100.00;63560.63;5021676;28;20033;-57
2021/07/26 10:12:14;;;;;;;5.95;2.05;;;;;;;-145.70;100.00;63560.63;5019901;28;20032;-57
2021/07/26 10:14:41;;;;;;;5.15;2.05;;;;;;;-145.70;100.00;63560.63;5018861;28;20029;-58
2021/07/26 10:17:07;;;;;;;4.78;2.30;;;;;;;-145.70;100.00;63560.63;5015695;28;20025;-57
2021/07/26 10:19:33;;;;;;;4.45;2.05;;;;;;;-145.70;100.00;63560.63;5021885;28;20025;-58
2021/07/26 10:21:59;;;;;;;5.25;2.30;;;;;;;-145.70;100.00;63560.63;5025209;28;20021;-57
2021/07/26 10:24:30;;;;;;;5.72;2.30;;;;;;;-145.70;100.00;63560.63;5018116;28;20030;-58
2021/07/26 10:26:58;;;;;;;5.35;2.17;;;;;;;-145.70;100.00;63560.63;5023624;28;20024;-57
2021/07/26 10:29:50;;;;;;;5.30;2.10;;;;;;;-145.70;100.00;63560.63;5023477;28;20037;-58
2021/07/26 10:32:30;;;;;;;7.57;2.38;;;;;;;-145.70;100.00;63560.63;5015447;28;20037;-58
2021/07/26 10:34:56;;;;;;;7.10;2.83;;;;;;;-145.70;100.00;63560.63;5020362;28;20033;-59
2021/07/26 10:37:40;;;;;;;8.18;3.10;;;;;;;-145.70;100.00;63560.63;5023299;28;20083;-59
2021/07/26 10:40:38;;;;;;;8.77;3.67;;;;;;;-145.70;100.00;63560.63;5024562;28;20025;-59
2021/07/26 10:43:04;;;;;;;8.88;3.45;;;;;;;-145.70;100.00;63560.63;5034682;28;20488;-58
2021/07/26 10:45:33;;;;;;;9.90;4.10;;;;;;;-145.70;100.00;63560.63;5019614;28;20041;-58
2021/07/26 10:48:20;;;;;;;9.50;4.15;;;;;;;-145.70;100.00;63560.63;5028651;28;20523;-58
2021/07/26 10:50:47;;;;;;;8.57;4.18;;;;;;;-145.70;100.00;63560.63;5021886;28;20068;-59
2021/07/26 10:53:34;;;;;;;9.10;3.70;;;;;;;-145.70;100.00;63560.63;5027348;28;20522;-59
2021/07/26 10:56:00;;;;;;;6.78;3.67;;;;;;;-145.70;100.00;63560.63;5024541;28;20025;-58
2021/07/26 10:58:58;;;;;;;6.93;3.05;;;;;;;-145.70;100.00;63560.63;5024202;28;20057;-59
2021/07/26 11:01:23;;;;;;;5.78;2.92;;;;;;;-145.70;100.00;63560.63;5021190;28;20041;-58
2021/07/26 11:03:50;;;;;;;6.32;2.80;;;;;;;-145.70;100.00;63560.63;5022105;28;20036;-58
2021/07/26 11:06:33;;;;;;;7.72;3.00;;;;;;;-145.70;100.00;63560.63;5028090;28;20035;-58
2021/07/26 11:09:20;;;;;;;6.43;2.88;;;;;;;-145.70;100.00;63560.63;5028410;28;20021;-58
2021/07/26 11:11:52;;;;;;;6.38;2.40;;;;;;;-145.70;100.00;63560.63;5023949;28;20025;-56
2021/07/26 11:14:19;;;;;;;7.78;3.00;;;;;;;-145.70;100.00;63560.63;5022784;28;20017;-57